»·PEaware :: N431JP KRNM-KBUR

N431JP :: KRNM-KBUR

FLIGHT INFORMATION

Flight Status: Arrived
Operator: Privately registered:
United States
More flights under this callsign
Pilot: Marek P. (484)
Aircraft: Diamond DA-40
(DA40)
More flights by this aircraft type
Origin: KRNM Ramona
United States
Destination: KBUR Bob Hope-Burbank
United States
More flights between these airports :: More routes between these airports
Route: ROBNN V208 OCN V23 POPPR SMO125 SMO SMO311 SILEX
File this flight plan on PilotEdge
Remarks:
Altitude:
(Current/Filed)
6,000ft
Speed:
(Current/Filed)
120kts
Departed: 19-Sep-20 02:29 PM
Arrived: 19-Sep-20 03:34 PM
Distance/Time
Traveled:
6739nm/1:05
Distance/Time
To Go:
Arrived

Flight Plot

Page will automatically refresh every two minutes.

Flight plan parsing failed; only flown route is shown


Map Options




Map Legend


Flown Route
Filed Route
Departure Airport
Arrival Airport
Navaid (VOR, NDB)
Fix

Horizontal Profiles

Position Reports

Time Latitude Longitude Heading Altitude Ground
Speed
19-Sep-20 14:03 0.000408 0.013975 0 3ft 0kts
19-Sep-20 14:06 33.040583 -116.916900 112 1393ft 0kts
19-Sep-20 14:06 33.040583 -116.916900 112 1393ft 0kts
19-Sep-20 14:07 33.040583 -116.916900 112 1393ft 0kts
19-Sep-20 14:09 33.040583 -116.916900 112 1393ft 0kts
19-Sep-20 14:09 33.040583 -116.916900 112 1393ft 0kts
19-Sep-20 14:10 33.040583 -116.916900 112 1393ft 0kts
19-Sep-20 14:11 33.040583 -116.916900 112 1393ft 0kts
19-Sep-20 14:12 33.040583 -116.916900 112 1393ft 0kts
19-Sep-20 14:13 33.040583 -116.916900 112 1393ft 0kts
19-Sep-20 14:14 33.040583 -116.916900 112 1393ft 0kts
19-Sep-20 14:15 33.040583 -116.916900 112 1393ft 0kts
19-Sep-20 14:16 33.040583 -116.916900 112 1393ft 0kts
19-Sep-20 14:17 33.040583 -116.916900 112 1393ft 0kts
19-Sep-20 14:18 33.040583 -116.916900 112 1393ft 0kts
19-Sep-20 14:19 33.040583 -116.916900 112 1393ft 0kts
19-Sep-20 14:20 33.040583 -116.916900 112 1393ft 0kts
19-Sep-20 14:21 33.040546 -116.916941 286 1393ft 0kts
19-Sep-20 14:22 33.040546 -116.916941 286 1393ft 0kts
19-Sep-20 14:23 33.039448 -116.912528 100 1395ft 35kts
19-Sep-20 14:24 33.038515 -116.907321 191 1399ft 0kts
19-Sep-20 14:25 33.038515 -116.907321 191 1399ft 0kts
19-Sep-20 14:26 33.038515 -116.907321 191 1399ft 0kts
19-Sep-20 14:27 33.038515 -116.907321 191 1399ft 0kts
19-Sep-20 14:28 33.039845 -116.919906 280 1418ft 89kts
19-Sep-20 14:29 33.044425 -116.952651 280 1913ft 108kts
19-Sep-20 14:30 33.050007 -116.988996 280 2423ft 114kts
19-Sep-20 14:31 33.067108 -117.019027 328 2914ft 116kts
19-Sep-20 14:32 33.094614 -117.039317 327 3409ft 116kts
19-Sep-20 14:33 33.122192 -117.060025 327 3897ft 117kts
19-Sep-20 14:34 33.151483 -117.077530 337 4383ft 118kts
19-Sep-20 14:35 33.183171 -117.088553 345 4869ft 119kts
19-Sep-20 14:36 33.208627 -117.108676 281 5340ft 119kts
19-Sep-20 14:37 33.209022 -117.148227 274 5825ft 119kts
19-Sep-20 14:38 33.213277 -117.189470 277 6009ft 133kts
19-Sep-20 14:39 33.218650 -117.234213 278 6006ft 137kts
19-Sep-20 14:40 33.223921 -117.279286 277 6006ft 137kts
19-Sep-20 14:41 33.229146 -117.323575 277 6002ft 129kts
19-Sep-20 14:42 33.234116 -117.365913 277 6005ft 128kts
19-Sep-20 14:43 33.239067 -117.408085 277 6005ft 128kts
19-Sep-20 14:44 33.259927 -117.441306 316 6005ft 128kts
19-Sep-20 14:45 33.285729 -117.470903 315 6005ft 128kts
19-Sep-20 14:46 33.311191 -117.500556 315 6002ft 126kts
19-Sep-20 14:47 33.336098 -117.529557 315 6007ft 125kts
19-Sep-20 14:48 33.361809 -117.559593 315 6006ft 131kts
19-Sep-20 14:49 33.388084 -117.590312 315 6006ft 132kts
19-Sep-20 14:50 33.414792 -117.620538 315 6005ft 132kts
19-Sep-20 14:51 33.441068 -117.651227 315 6005ft 132kts
19-Sep-20 14:52 33.467334 -117.682023 315 6005ft 132kts
19-Sep-20 14:53 33.493588 -117.712839 315 6006ft 132kts
19-Sep-20 14:54 33.519734 -117.743535 315 6005ft 132kts
19-Sep-20 14:55 33.545980 -117.774389 315 6005ft 132kts
19-Sep-20 14:56 33.572214 -117.805261 315 6006ft 132kts
19-Sep-20 14:57 33.598409 -117.836116 315 6005ft 132kts
19-Sep-20 14:58 33.624663 -117.867051 315 6005ft 132kts
19-Sep-20 14:59 33.650801 -117.897862 315 6005ft 132kts
19-Sep-20 15:00 33.676888 -117.928631 315 6005ft 132kts
19-Sep-20 15:01 33.703081 -117.959568 315 6005ft 132kts
19-Sep-20 15:02 33.728182 -117.991550 296 6005ft 131kts
19-Sep-20 15:03 33.741756 -118.031801 294 6006ft 131kts
19-Sep-20 15:04 33.756388 -118.069318 294 6006ft 131kts
19-Sep-20 15:05 33.771199 -118.107000 295 6006ft 131kts
19-Sep-20 15:06 33.786167 -118.145080 294 6006ft 131kts
19-Sep-20 15:07 33.799391 -118.178816 294 6090ft 128kts
19-Sep-20 15:08 33.808519 -118.202055 294 6097ft 131kts
19-Sep-20 15:09 33.820285 -118.232097 295 5937ft 140kts
19-Sep-20 15:10 33.833367 -118.265466 295 5551ft 143kts
19-Sep-20 15:11 33.855870 -118.304026 323 5050ft 143kts
19-Sep-20 15:12 33.886997 -118.333586 319 4550ft 142kts
19-Sep-20 15:13 33.917397 -118.363744 319 4100ft 138kts
19-Sep-20 15:14 33.945707 -118.392167 319 4088ft 129kts
19-Sep-20 15:15 33.973589 -118.419519 319 4088ft 129kts
19-Sep-20 15:16 34.000868 -118.447723 318 4088ft 129kts
19-Sep-20 15:17 34.026674 -118.477661 312 4086ft 126kts
19-Sep-20 15:18 34.050311 -118.508250 312 4088ft 124kts
19-Sep-20 15:19 34.073818 -118.538624 312 4090ft 123kts
19-Sep-20 15:20 34.097282 -118.568943 312 4089ft 124kts
19-Sep-20 15:21 34.120886 -118.599405 312 4088ft 123kts
19-Sep-20 15:22 34.144398 -118.629743 312 4089ft 123kts
19-Sep-20 15:23 34.167967 -118.660135 312 4088ft 123kts
19-Sep-20 15:24 34.195773 -118.676692 27 3983ft 125kts
19-Sep-20 15:25 34.203980 -118.640292 105 3483ft 124kts
19-Sep-20 15:26 34.200262 -118.599750 91 3089ft 115kts
19-Sep-20 15:27 34.199964 -118.563299 88 3091ft 107kts
19-Sep-20 15:28 34.200003 -118.525640 91 3088ft 114kts
19-Sep-20 15:29 34.199434 -118.485477 90 2785ft 123kts
19-Sep-20 15:30 34.198836 -118.442291 91 2076ft 128kts
19-Sep-20 15:31 34.198350 -118.404317 90 1449ft 101kts
19-Sep-20 15:32 34.197976 -118.374610 88 822ft 76kts
19-Sep-20 15:33 34.198589 -118.360231 2 716ft 15kts
19-Sep-20 15:34 34.199113 -118.360234 358 716ft 8kts
19-Sep-20 15:35 34.200047 -118.359035 6 719ft 0kts
19-Sep-20 15:36 34.200440 -118.358845 76 721ft 0kts
19-Sep-20 15:37 0.000408 0.013975 0 3ft 0kts
19-Sep-20 15:38 0.000408 0.013975 0 3ft 0kts

Navigation Log

Ident Type
Flight plan parsing failed, navigation log unavailable